TFM - Tactical Decision Aid
ID: Runway Winds: CIG/VIS Threshold:

KCLE - Cleveland/Hopkins In, OH, US

Updated at: 1941 UTC 19 Aug 2019
Latest TAF at: 1911 UTC 19 Aug 2019

TAF Board

Time1851Z 19/20Z 19/21Z 19/22Z 19/23Z 20/00Z 20/01Z 20/02Z 20/03Z 20/04Z 20/05Z 20/06Z 20/07Z 20/08Z>>
Type OBS PRVL PRVL PRVL PRVL PRVL PRVL PRVL PRVL PRVL PRVL PRVL PRVL PRVL
VIS 10 >6 >6 >6 >6 >6 >6 >6 >6 >6 >6 >6 >6 >6
CIG -- 35 35 35 35 -- -- -- -- -- -- -- -- --
Cover SCT BKN BKN BKN BKN FEW FEW FEW FEW FEW FEW FEW FEW FEW
FltCat VFR VFR VFR VFR VFR VFR VFR VFR VFR VFR VFR VFR VFR VFR
WX -- -- -- -- -- -- -- -- -- -- -- -- -- --
WDir 20 350 350 350 350 VRB VRB VRB VRB VRB VRB VRB VRB VRB
WSpd 7 6 6 6 6 0 0 0 0 0 0 0 0 0
WGst -- -- -- -- -- -- -- -- -- -- -- -- -- --

TDA Impact Legend

  None Marginal Slight Moderate High
Visibility (sm) >5 3≤X≤5 1≤X<3 0.5≤X<1 <0.5
Ceiling (100 ft) >30 10≤X≤30 4≤X<10 2≤X<4 <2
Wind Speed (kt) <15 15≤X<25 25≤X<30 ≥30
Wind Gust (kt) <15 15≤X<25 25≤X<35 ≥35
Weather No Wx Reported VCTS -TS,-FZRA TS,FZRA +TS,+FZRA
TAF
KCLE 191911Z 1919/2024 35006KT P6SM BKN035
  FM200000 00000KT P6SM FEW250
  FM201300 VRB03KT P6SM SCT150
  FM201800 00000KT P6SM VCTS SCT035CB BKN100


METAR
KCLE 191851Z 02007KT 10SM SCT039 28/21 A3009 RMK AO2 SLP182 T02830211
KCLE 191751Z 00000KT 10SM SCT040 28/19 A3009 RMK AO2 SLP183 T02780189 10283 20200 50003
KCLE 191651Z 24005KT 10SM SCT042 27/19 A3009 RMK AO2 SLP184 T02720189

Radar Display
Forecast Discussion